createdAt,value
2023-03-06T00:00:50.589Z,0.00
2023-03-06T00:01:50.589Z,0.00
2023-03-06T00:02:52.140Z,0.00
2023-03-06T00:03:50.641Z,0.00
2023-03-06T00:04:50.544Z,0.00
2023-03-06T00:05:50.586Z,0.00
2023-03-06T00:06:50.533Z,0.00
2023-03-06T00:07:50.515Z,0.00
2023-03-06T00:08:50.508Z,0.00
2023-03-06T00:09:50.494Z,0.00
2023-03-06T00:10:50.488Z,0.00
2023-03-06T00:11:50.468Z,0.00
2023-03-06T00:12:50.472Z,0.00
2023-03-06T00:13:50.441Z,0.00
2023-03-06T00:14:50.420Z,0.00
2023-03-06T00:15:50.466Z,0.00
2023-03-06T00:16:50.411Z,0.00
2023-03-06T00:17:50.395Z,0.00
2023-03-06T00:18:50.383Z,0.00
2023-03-06T00:19:50.392Z,0.00
2023-03-06T00:20:50.363Z,0.00
2023-03-06T00:21:50.353Z,0.00
2023-03-06T00:22:50.337Z,0.00
2023-03-06T00:23:50.339Z,0.00
2023-03-06T00:24:50.317Z,0.00
2023-03-06T00:25:50.300Z,0.00
2023-03-06T00:26:50.305Z,0.00
2023-03-06T00:27:50.277Z,0.00
2023-03-06T00:28:50.296Z,0.00
2023-03-06T00:29:50.261Z,0.00
2023-03-06T00:30:50.263Z,0.00
2023-03-06T00:31:50.305Z,0.00
2023-03-06T00:32:50.243Z,0.00
2023-03-06T00:33:50.211Z,0.00
2023-03-06T00:34:50.209Z,0.00
2023-03-06T00:35:50.389Z,0.00
2023-03-06T00:36:50.177Z,0.00
2023-03-06T00:37:50.169Z,0.00
2023-03-06T00:38:50.170Z,0.00
2023-03-06T00:39:50.153Z,0.00
2023-03-06T00:40:50.133Z,0.00
2023-03-06T00:41:50.145Z,0.00
2023-03-06T00:42:50.123Z,0.00
2023-03-06T00:43:50.112Z,0.00
2023-03-06T00:44:50.092Z,0.00
2023-03-06T00:45:50.125Z,0.00
2023-03-06T00:46:50.080Z,0.00
2023-03-06T00:47:50.054Z,0.00
2023-03-06T00:48:50.076Z,0.00
2023-03-06T00:49:50.033Z,0.00
2023-03-06T00:50:50.025Z,0.00
2023-03-06T00:51:50.054Z,0.00
2023-03-06T00:52:50.028Z,0.00
2023-03-06T00:53:49.989Z,0.00
2023-03-06T00:54:49.991Z,0.00
2023-03-06T00:55:49.974Z,0.00
2023-03-06T00:56:49.981Z,0.00
2023-03-06T00:57:49.950Z,0.00
2023-03-06T00:58:49.943Z,0.00
2023-03-06T00:59:49.919Z,0.00
2023-03-06T01:00:49.940Z,0.00
2023-03-06T01:01:49.932Z,0.00
2023-03-06T01:02:49.895Z,0.00
2023-03-06T01:03:49.902Z,0.00
2023-03-06T01:04:49.884Z,0.00
2023-03-06T01:05:49.863Z,0.00
2023-03-06T01:06:49.851Z,0.00
2023-03-06T01:07:49.866Z,0.00
2023-03-06T01:08:49.820Z,0.00
2023-03-06T01:09:49.835Z,0.00
2023-03-06T01:10:49.808Z,0.00
2023-03-06T01:11:49.795Z,0.00
2023-03-06T01:12:49.781Z,0.00
2023-03-06T01:13:49.776Z,0.00
2023-03-06T01:14:49.762Z,0.00
2023-03-06T01:15:49.759Z,0.00
2023-03-06T01:16:49.746Z,0.00
2023-03-06T01:17:49.714Z,0.00
2023-03-06T01:18:49.699Z,0.00
2023-03-06T01:19:49.688Z,0.00
2023-03-06T01:20:49.694Z,0.00
2023-03-06T01:21:49.680Z,0.00
2023-03-06T01:22:49.686Z,0.00
2023-03-06T01:23:49.671Z,0.00
2023-03-06T01:24:49.636Z,0.00
2023-03-06T01:25:49.640Z,0.00
2023-03-06T01:26:49.628Z,0.00
2023-03-06T01:27:49.610Z,0.00
2023-03-06T01:28:49.607Z,0.00
2023-03-06T01:29:49.584Z,0.00
2023-03-06T01:30:49.586Z,0.00
2023-03-06T01:31:49.614Z,0.00
2023-03-06T01:32:49.549Z,0.00
2023-03-06T01:33:49.548Z,0.00
2023-03-06T01:34:49.527Z,0.00
2023-03-06T01:35:49.552Z,0.00
2023-03-06T01:36:49.524Z,0.00
2023-03-06T01:37:49.496Z,0.00
2023-03-06T01:38:49.494Z,0.00
2023-03-06T01:39:49.502Z,0.00
2023-03-06T01:40:49.458Z,0.00
2023-03-06T01:41:49.461Z,0.00
2023-03-06T01:42:49.461Z,0.00
2023-03-06T01:43:49.430Z,0.00
2023-03-06T01:44:49.417Z,0.00
2023-03-06T01:45:49.505Z,0.00
2023-03-06T01:46:49.408Z,0.00
2023-03-06T01:47:49.410Z,0.00
2023-03-06T01:48:49.380Z,0.00
2023-03-06T01:49:49.372Z,0.00
2023-03-06T01:50:49.364Z,0.00
2023-03-06T01:51:49.358Z,0.00
2023-03-06T01:52:49.336Z,0.00
2023-03-06T01:53:49.333Z,0.00
2023-03-06T01:54:49.313Z,0.00
2023-03-06T01:55:49.337Z,0.00
2023-03-06T01:56:49.284Z,0.00
2023-03-06T01:57:49.268Z,0.00
2023-03-06T01:58:49.264Z,0.00
2023-03-06T01:59:49.278Z,0.00
2023-03-06T02:00:49.338Z,0.00
2023-03-06T02:01:49.277Z,0.00
2023-03-06T02:02:49.244Z,0.00
2023-03-06T02:03:49.234Z,0.00
2023-03-06T02:04:49.211Z,0.00
2023-03-06T02:05:49.203Z,0.00
2023-03-06T02:06:49.168Z,0.00
2023-03-06T02:07:49.175Z,0.00
2023-03-06T02:08:49.181Z,0.00
2023-03-06T02:09:49.154Z,0.00
2023-03-06T02:10:49.153Z,0.00
2023-03-06T02:11:49.328Z,0.00
2023-03-06T02:12:49.107Z,0.00
2023-03-06T02:13:49.119Z,0.00
2023-03-06T02:14:49.104Z,0.00
2023-03-06T02:15:49.096Z,0.00
2023-03-06T02:16:49.180Z,0.00
2023-03-06T02:17:49.070Z,0.00
2023-03-06T02:18:49.051Z,0.00
2023-03-06T02:19:49.042Z,0.00
2023-03-06T02:20:49.037Z,0.00
2023-03-06T02:21:49.018Z,0.00
2023-03-06T02:22:48.995Z,0.00
2023-03-06T02:23:48.991Z,0.00
2023-03-06T02:24:48.974Z,0.00
2023-03-06T02:25:48.966Z,0.00
2023-03-06T02:26:48.951Z,0.00
2023-03-06T02:27:48.963Z,0.00
2023-03-06T02:28:48.945Z,0.00
2023-03-06T02:29:48.939Z,0.00
2023-03-06T02:30:48.950Z,0.00
2023-03-06T02:31:48.908Z,0.00
2023-03-06T02:32:48.894Z,0.00
2023-03-06T02:33:48.885Z,0.00
2023-03-06T02:34:48.873Z,0.00
2023-03-06T02:35:48.906Z,0.00
2023-03-06T02:36:48.877Z,0.00
2023-03-06T02:37:48.838Z,0.00
2023-03-06T02:38:48.838Z,0.00
2023-03-06T02:39:48.812Z,0.00
2023-03-06T02:40:48.807Z,0.00
2023-03-06T02:41:48.799Z,0.00
2023-03-06T02:42:48.782Z,0.00
2023-03-06T02:43:48.806Z,0.00
2023-03-06T02:44:48.757Z,0.00
2023-03-06T02:45:48.837Z,0.00
2023-03-06T02:46:48.734Z,0.00
2023-03-06T02:47:48.735Z,0.00
2023-03-06T02:48:48.713Z,0.00
2023-03-06T02:49:48.708Z,0.00
2023-03-06T02:50:48.705Z,0.00
2023-03-06T02:51:48.686Z,0.00
2023-03-06T02:52:48.679Z,0.00
2023-03-06T02:53:48.646Z,0.00
2023-03-06T02:54:48.652Z,0.00
2023-03-06T02:55:48.666Z,0.00
2023-03-06T02:56:48.628Z,0.00
2023-03-06T02:57:48.614Z,0.00
2023-03-06T02:58:48.594Z,0.00
2023-03-06T02:59:48.614Z,0.00
2023-03-06T03:00:48.602Z,0.00
2023-03-06T03:01:48.659Z,0.00
2023-03-06T03:02:48.543Z,0.00
2023-03-06T03:03:48.561Z,0.00
2023-03-06T03:04:48.598Z,0.00
2023-03-06T03:05:48.510Z,0.00
2023-03-06T03:06:48.512Z,0.00
2023-03-06T03:07:48.519Z,0.00
2023-03-06T03:08:48.478Z,0.00
2023-03-06T03:09:48.501Z,0.00
2023-03-06T03:10:48.478Z,0.00
2023-03-06T03:11:48.461Z,0.00
2023-03-06T03:12:48.445Z,0.00
2023-03-06T03:13:48.424Z,0.00
2023-03-06T03:14:48.438Z,0.00
2023-03-06T03:15:48.447Z,0.00
2023-03-06T03:16:48.434Z,0.00
2023-03-06T03:17:48.419Z,0.00
2023-03-06T03:18:48.377Z,0.00
2023-03-06T03:19:48.354Z,0.00
2023-03-06T03:20:48.418Z,0.00
2023-03-06T03:21:48.336Z,0.00
2023-03-06T03:22:48.335Z,0.00
2023-03-06T03:23:48.330Z,0.00
2023-03-06T03:24:48.364Z,0.00
2023-03-06T03:25:48.296Z,0.00
2023-03-06T03:26:48.309Z,0.00
2023-03-06T03:27:48.271Z,0.00
2023-03-06T03:28:48.276Z,0.00
2023-03-06T03:29:48.266Z,0.00
2023-03-06T03:30:48.319Z,0.00
2023-03-06T03:31:48.262Z,0.00
2023-03-06T03:32:48.220Z,0.00
2023-03-06T03:33:48.220Z,0.00
2023-03-06T03:34:48.201Z,0.00
2023-03-06T03:35:48.208Z,0.00
2023-03-06T03:36:48.189Z,0.00
2023-03-06T03:37:48.160Z,0.00
2023-03-06T03:38:48.167Z,0.00
2023-03-06T03:39:48.151Z,0.00
2023-03-06T03:40:48.131Z,0.00
2023-03-06T03:41:48.115Z,0.00
2023-03-06T03:42:48.137Z,0.00
2023-03-06T03:43:48.092Z,0.00
2023-03-06T03:44:48.110Z,0.00
2023-03-06T03:45:48.087Z,0.00
2023-03-06T03:46:48.134Z,0.00
2023-03-06T03:47:48.108Z,0.00
2023-03-06T03:48:48.080Z,0.00
2023-03-06T03:49:48.036Z,0.00
2023-03-06T03:50:48.017Z,0.00
2023-03-06T03:51:48.000Z,0.00
2023-03-06T03:52:48.015Z,0.00
2023-03-06T03:53:47.988Z,0.00
2023-03-06T03:54:47.986Z,0.00
2023-03-06T03:55:47.983Z,0.00
2023-03-06T03:56:47.960Z,0.00
2023-03-06T03:57:47.966Z,0.00
2023-03-06T03:58:47.935Z,0.00
2023-03-06T03:59:47.929Z,0.00
2023-03-06T04:00:47.930Z,0.00
2023-03-06T04:01:47.913Z,0.00
2023-03-06T04:02:47.875Z,0.00
2023-03-06T04:03:47.909Z,0.00
2023-03-06T04:04:47.958Z,0.00
2023-03-06T04:05:47.860Z,0.00
2023-03-06T04:06:47.868Z,0.00
2023-03-06T04:07:47.832Z,0.00
2023-03-06T04:08:47.828Z,0.00
2023-03-06T04:09:47.805Z,0.00
2023-03-06T04:10:47.793Z,0.00
2023-03-06T04:11:47.782Z,0.00
2023-03-06T04:12:47.787Z,0.00
2023-03-06T04:13:47.767Z,0.00
2023-03-06T04:14:47.762Z,0.00
2023-03-06T04:15:47.743Z,0.00
2023-03-06T04:16:47.720Z,0.00
2023-03-06T04:17:47.740Z,0.00
2023-03-06T04:18:47.715Z,0.00
2023-03-06T04:19:47.720Z,0.00
2023-03-06T04:20:47.688Z,0.00
2023-03-06T04:21:47.661Z,0.00
2023-03-06T04:22:47.704Z,0.00
2023-03-06T04:23:47.663Z,0.00
2023-03-06T04:24:47.643Z,0.00
2023-03-06T04:25:47.667Z,0.00
2023-03-06T04:26:47.630Z,0.00
2023-03-06T04:27:47.610Z,0.00
2023-03-06T04:28:47.599Z,0.00
2023-03-06T04:29:47.575Z,0.00
2023-03-06T04:30:47.560Z,0.00
2023-03-06T04:31:47.648Z,0.00
2023-03-06T04:32:47.543Z,0.00
2023-03-06T04:33:47.576Z,0.00
2023-03-06T04:34:47.517Z,0.00
2023-03-06T04:35:47.657Z,0.00
2023-03-06T04:36:47.549Z,0.00
2023-03-06T04:37:47.504Z,0.00
2023-03-06T04:38:47.563Z,0.00
2023-03-06T04:39:47.524Z,0.00
2023-03-06T04:40:47.455Z,0.00
2023-03-06T04:41:47.460Z,0.00
2023-03-06T04:42:47.429Z,0.00
2023-03-06T04:43:47.436Z,0.00
2023-03-06T04:44:47.419Z,0.00
2023-03-06T04:45:47.494Z,0.00
2023-03-06T04:46:47.397Z,0.00
2023-03-06T04:47:47.377Z,0.00
2023-03-06T04:48:47.409Z,0.00
2023-03-06T04:49:47.357Z,0.00
2023-03-06T04:50:47.355Z,0.00
2023-03-06T04:51:47.424Z,0.00
2023-03-06T04:52:47.335Z,0.00
2023-03-06T04:53:47.327Z,0.00
2023-03-06T04:54:47.307Z,0.00
2023-03-06T04:55:47.298Z,0.00
2023-03-06T04:56:47.283Z,0.00
2023-03-06T04:57:47.267Z,0.00
2023-03-06T04:58:47.277Z,0.00
2023-03-06T04:59:47.243Z,0.00
2023-03-06T05:00:47.289Z,0.00
2023-03-06T05:01:47.303Z,0.00
2023-03-06T05:02:47.216Z,0.00
2023-03-06T05:03:47.218Z,0.00
2023-03-06T05:04:47.197Z,0.00
2023-03-06T05:05:47.175Z,0.00
2023-03-06T05:06:47.164Z,0.00
2023-03-06T05:07:47.191Z,0.00
2023-03-06T05:08:47.143Z,0.00
2023-03-06T05:09:47.140Z,0.00
2023-03-06T05:10:47.126Z,0.00
2023-03-06T05:11:47.106Z,0.00
2023-03-06T05:12:47.092Z,0.00
2023-03-06T05:13:47.110Z,0.00
2023-03-06T05:14:48.100Z,0.00
2023-03-06T05:15:47.078Z,0.00
2023-03-06T05:16:47.129Z,0.00
2023-03-06T05:17:47.036Z,0.00
2023-03-06T05:18:49.402Z,0.00
2023-03-06T05:19:47.047Z,0.00
2023-03-06T05:20:47.008Z,0.00
2023-03-06T05:21:47.005Z,0.00
2023-03-06T05:22:46.995Z,0.00
2023-03-06T05:23:47.009Z,0.00
2023-03-06T05:24:46.973Z,0.00
2023-03-06T05:25:46.950Z,0.00
2023-03-06T05:26:46.958Z,0.00
2023-03-06T05:27:46.932Z,0.00
2023-03-06T05:28:46.939Z,0.00
2023-03-06T05:29:46.904Z,0.00
2023-03-06T05:30:46.907Z,0.00
2023-03-06T05:31:46.974Z,0.00
2023-03-06T05:32:47.001Z,0.00
2023-03-06T05:33:46.872Z,0.00
2023-03-06T05:34:46.843Z,0.00
2023-03-06T05:35:46.904Z,0.00
2023-03-06T05:36:46.841Z,0.00
2023-03-06T05:37:46.821Z,0.00
2023-03-06T05:38:46.809Z,0.00
2023-03-06T05:39:46.861Z,0.00
2023-03-06T05:40:46.800Z,0.00
2023-03-06T05:41:46.769Z,0.00
2023-03-06T05:42:46.763Z,0.00
2023-03-06T05:43:46.781Z,0.00
2023-03-06T05:44:46.752Z,0.00
2023-03-06T05:45:46.808Z,0.00
2023-03-06T05:46:46.739Z,0.00
2023-03-06T05:47:46.727Z,0.00
2023-03-06T05:48:47.124Z,0.00
2023-03-06T05:49:46.685Z,0.00
2023-03-06T05:50:46.697Z,0.00
2023-03-06T05:51:46.674Z,0.00
2023-03-06T05:52:46.677Z,0.00
2023-03-06T05:53:46.638Z,0.00
2023-03-06T05:54:46.646Z,0.00
2023-03-06T05:55:46.654Z,0.00
2023-03-06T05:56:46.640Z,0.00
2023-03-06T05:57:46.630Z,0.00
2023-03-06T05:58:46.587Z,0.00
2023-03-06T05:59:46.580Z,0.00
2023-03-06T06:00:46.588Z,0.00
2023-03-06T06:01:46.564Z,0.00
2023-03-06T06:02:46.554Z,0.00
2023-03-06T06:03:46.622Z,0.00
2023-03-06T06:04:46.516Z,0.00
2023-03-06T06:05:46.538Z,0.00
2023-03-06T06:06:46.519Z,0.00
2023-03-06T06:07:46.488Z,0.00
2023-03-06T06:08:46.481Z,0.00
2023-03-06T06:09:46.477Z,0.00
2023-03-06T06:10:46.483Z,0.00
2023-03-06T06:11:47.452Z,0.00
2023-03-06T06:12:46.448Z,0.00
2023-03-06T06:13:46.442Z,0.00
2023-03-06T06:14:46.466Z,0.00
2023-03-06T06:15:46.465Z,0.00
2023-03-06T06:16:46.403Z,0.00
2023-03-06T06:17:54.194Z,0.00
2023-03-06T06:18:46.360Z,0.00
2023-03-06T06:19:46.363Z,0.00
2023-03-06T06:20:46.355Z,0.00
2023-03-06T06:21:46.353Z,0.00
2023-03-06T06:22:46.347Z,0.00
2023-03-06T06:23:46.990Z,5.62
2023-03-06T06:24:46.297Z,5.62
2023-03-06T06:25:46.314Z,5.62
2023-03-06T06:26:46.296Z,5.62
2023-03-06T06:27:46.288Z,5.62
2023-03-06T06:28:46.302Z,5.62
2023-03-06T06:29:46.256Z,5.62
2023-03-06T06:30:46.342Z,5.62
2023-03-06T06:31:46.252Z,5.62
2023-03-06T06:32:46.225Z,11.25
2023-03-06T06:33:46.239Z,11.25
2023-03-06T06:34:46.196Z,11.25
2023-03-06T06:35:46.239Z,11.25
2023-03-06T06:36:46.193Z,11.25
2023-03-06T06:37:46.254Z,11.25
2023-03-06T06:38:46.158Z,11.25
2023-03-06T06:39:46.171Z,11.25
2023-03-06T06:41:04.321Z,11.25
2023-03-06T06:42:00.075Z,11.25
2023-03-06T06:42:47.127Z,11.25
2023-03-06T06:43:46.217Z,11.25
2023-03-06T06:44:46.097Z,5.62
2023-03-06T06:45:46.293Z,5.62
2023-03-06T06:47:47.077Z,5.62
2023-03-06T06:48:46.036Z,5.62
2023-03-06T06:49:46.048Z,5.62
2023-03-06T06:50:46.034Z,11.25
2023-03-06T06:51:46.043Z,11.25
2023-03-06T06:52:46.010Z,5.62
2023-03-06T06:53:46.029Z,5.62
2023-03-06T06:54:46.078Z,5.62
2023-03-06T06:55:45.954Z,5.62
2023-03-06T06:56:45.974Z,11.25
2023-03-06T06:57:45.973Z,11.25
2023-03-06T06:58:45.931Z,11.25
2023-03-06T06:59:45.992Z,11.25
2023-03-06T07:00:45.906Z,11.25
2023-03-06T07:01:45.960Z,11.25
2023-03-06T07:02:45.903Z,5.62
2023-03-06T07:03:45.950Z,11.25
2023-03-06T07:05:01.867Z,11.25
2023-03-06T07:05:46.870Z,11.25
2023-03-06T07:06:45.851Z,11.25
2023-03-06T07:07:45.910Z,16.88
2023-03-06T07:08:45.812Z,16.88
2023-03-06T07:09:45.820Z,16.88
2023-03-06T07:10:45.796Z,11.25
2023-03-06T07:11:45.788Z,11.25
2023-03-06T07:12:45.768Z,11.25
2023-03-06T07:13:45.778Z,16.88
2023-03-06T07:14:45.732Z,16.88
2023-03-06T07:15:45.832Z,16.88
2023-03-06T07:16:45.737Z,22.50
2023-03-06T07:17:46.022Z,28.12
2023-03-06T07:18:45.748Z,28.12
2023-03-06T07:19:45.715Z,33.75
2023-03-06T07:20:45.697Z,33.75
2023-03-06T07:21:45.669Z,33.75
2023-03-06T07:22:51.362Z,33.75
2023-03-06T07:23:46.677Z,28.12
2023-03-06T07:24:45.646Z,28.12
2023-03-06T07:25:45.643Z,28.12
2023-03-06T07:26:45.651Z,28.12
2023-03-06T07:27:52.680Z,28.12
2023-03-06T07:28:52.641Z,33.75
2023-03-06T07:29:46.580Z,39.38
2023-03-06T07:30:45.585Z,45.00
2023-03-06T07:31:45.690Z,50.62
2023-03-06T07:32:45.566Z,50.62
2023-03-06T07:33:45.526Z,50.62
2023-03-06T07:34:45.553Z,50.62
2023-03-06T07:35:45.625Z,50.62
2023-03-06T07:36:45.495Z,45.00
2023-03-06T07:37:45.563Z,45.00
2023-03-06T07:38:45.475Z,50.62
2023-03-06T07:39:45.471Z,56.25
2023-03-06T07:40:45.460Z,61.88
2023-03-06T07:41:45.479Z,56.25
2023-03-06T07:42:45.437Z,56.25
2023-03-06T07:43:45.422Z,50.62
2023-03-06T07:44:45.442Z,50.62
2023-03-06T07:45:45.412Z,50.62
2023-03-06T07:46:45.430Z,50.62
2023-03-06T07:47:45.414Z,45.00
2023-03-06T07:48:45.405Z,45.00
2023-03-06T07:49:45.380Z,45.00
2023-03-06T07:50:47.984Z,45.00
2023-03-06T07:51:45.371Z,39.38
2023-03-06T07:52:45.337Z,39.38
2023-03-06T07:53:45.347Z,45.00
2023-03-06T07:54:45.604Z,50.62
2023-03-06T07:55:45.396Z,56.25
2023-03-06T07:56:45.300Z,56.25
2023-03-06T07:57:45.285Z,50.62
2023-03-06T07:58:45.298Z,50.62
2023-03-06T07:59:45.253Z,50.62
2023-03-06T08:00:45.236Z,45.00
2023-03-06T08:01:45.252Z,45.00
2023-03-06T08:02:45.296Z,45.00
2023-03-06T08:03:45.310Z,50.62
2023-03-06T08:04:45.210Z,56.25
2023-03-06T08:05:45.210Z,56.25
2023-03-06T08:06:45.185Z,56.25
2023-03-06T08:07:45.195Z,67.50
2023-03-06T08:08:45.241Z,67.50
2023-03-06T08:09:45.157Z,67.50
2023-03-06T08:10:45.159Z,61.88
2023-03-06T08:11:45.168Z,56.25
2023-03-06T08:12:45.153Z,61.88
2023-03-06T08:13:45.098Z,67.50
2023-03-06T08:14:45.086Z,67.50
2023-03-06T08:15:45.104Z,67.50
2023-03-06T08:16:45.056Z,61.88
2023-03-06T08:17:45.077Z,61.88
2023-03-06T08:18:46.436Z,61.88
2023-03-06T08:19:45.112Z,61.88
2023-03-06T08:20:45.056Z,67.50
2023-03-06T08:21:45.050Z,61.88
2023-03-06T08:22:45.013Z,61.88
2023-03-06T08:23:44.993Z,61.88
2023-03-06T08:24:44.996Z,61.88
2023-03-06T08:25:44.976Z,67.50
2023-03-06T08:26:44.988Z,73.12
2023-03-06T08:27:44.951Z,78.75
2023-03-06T08:28:44.922Z,84.38
2023-03-06T08:29:44.930Z,78.75
2023-03-06T08:30:44.908Z,73.12
2023-03-06T08:31:44.889Z,78.75
2023-03-06T08:32:44.888Z,78.75
2023-03-06T08:33:44.925Z,84.38
2023-03-06T08:34:44.931Z,95.62
2023-03-06T08:35:44.938Z,101.25
2023-03-06T08:36:44.857Z,101.25
2023-03-06T08:37:45.613Z,101.25
2023-03-06T08:38:44.853Z,106.88
2023-03-06T08:39:44.794Z,123.75
2023-03-06T08:40:44.800Z,140.62
2023-03-06T08:41:44.820Z,140.62
2023-03-06T08:42:44.755Z,146.25
2023-03-06T08:43:44.751Z,151.88
2023-03-06T08:44:45.511Z,157.50
2023-03-06T08:45:44.787Z,163.12
2023-03-06T08:46:44.753Z,163.12
2023-03-06T08:47:44.750Z,163.12
2023-03-06T08:48:44.706Z,163.12
2023-03-06T08:49:44.696Z,163.12
2023-03-06T08:50:44.818Z,163.12
2023-03-06T08:51:44.694Z,163.12
2023-03-06T08:52:44.665Z,157.50
2023-03-06T08:53:44.855Z,157.50
2023-03-06T08:54:44.668Z,157.50
2023-03-06T08:55:44.717Z,157.50
2023-03-06T08:56:44.637Z,157.50
2023-03-06T08:57:44.612Z,151.88
2023-03-06T08:58:44.622Z,151.88
2023-03-06T08:59:44.593Z,151.88
2023-03-06T09:00:44.839Z,151.88
2023-03-06T09:01:44.636Z,157.50
2023-03-06T09:02:44.606Z,151.88
2023-03-06T09:03:44.576Z,146.25
2023-03-06T09:04:44.552Z,151.88
2023-03-06T09:05:44.593Z,151.88
2023-03-06T09:06:44.494Z,151.88
2023-03-06T09:07:44.625Z,146.25
2023-03-06T09:08:44.597Z,146.25
2023-03-06T09:09:44.503Z,146.25
2023-03-06T09:10:44.506Z,140.62
2023-03-06T09:11:44.462Z,151.88
2023-03-06T09:12:50.598Z,151.88
2023-03-06T09:13:45.973Z,163.12
2023-03-06T09:14:44.454Z,168.75
2023-03-06T09:15:44.396Z,168.75
2023-03-06T09:16:44.484Z,163.12
2023-03-06T09:17:44.496Z,157.50
2023-03-06T09:18:44.363Z,151.88
2023-03-06T09:19:44.358Z,151.88
2023-03-06T09:20:44.352Z,146.25
2023-03-06T09:21:44.322Z,135.00
2023-03-06T09:22:44.328Z,123.75
2023-03-06T09:23:44.368Z,123.75
2023-03-06T09:24:44.313Z,135.00
2023-03-06T09:25:44.299Z,135.00
2023-03-06T09:26:46.679Z,135.00
2023-03-06T09:27:44.280Z,129.38
2023-03-06T09:28:44.293Z,135.00
2023-03-06T09:29:44.248Z,140.62
2023-03-06T09:30:44.272Z,135.00
2023-03-06T09:31:44.235Z,140.62
2023-03-06T09:32:44.261Z,157.50
2023-03-06T09:33:44.216Z,168.75
2023-03-06T09:34:44.202Z,174.38
2023-03-06T09:35:44.242Z,174.38
2023-03-06T09:36:55.990Z,168.75
2023-03-06T09:37:45.174Z,151.88
2023-03-06T09:38:44.195Z,140.62
2023-03-06T09:39:44.167Z,140.62
2023-03-06T09:40:44.197Z,157.50
2023-03-06T09:41:44.114Z,157.50
2023-03-06T09:42:44.103Z,157.50
2023-03-06T09:43:44.100Z,151.88
2023-03-06T09:44:44.123Z,146.25
2023-03-06T09:45:44.104Z,151.88
2023-03-06T09:46:44.077Z,157.50
2023-03-06T09:47:44.965Z,163.12
2023-03-06T09:48:44.089Z,168.75
2023-03-06T09:49:44.984Z,180.00
2023-03-06T09:50:44.048Z,180.00
2023-03-06T09:51:44.005Z,174.38
2023-03-06T09:52:44.053Z,168.75
2023-03-06T09:53:43.967Z,168.75
2023-03-06T09:54:43.972Z,180.00
2023-03-06T09:55:44.098Z,191.25
2023-03-06T09:56:43.989Z,202.50
2023-03-06T09:57:43.981Z,202.50
2023-03-06T09:58:44.037Z,202.50
2023-03-06T09:59:44.465Z,196.88
2023-03-06T10:00:43.926Z,196.88
2023-03-06T10:01:43.899Z,191.25
2023-03-06T10:02:44.018Z,185.62
2023-03-06T10:03:43.890Z,180.00
2023-03-06T10:04:44.026Z,168.75
2023-03-06T10:05:43.857Z,157.50
2023-03-06T10:06:43.828Z,140.62
2023-03-06T10:07:43.845Z,129.38
2023-03-06T10:08:43.907Z,129.38
2023-03-06T10:09:43.823Z,129.38
2023-03-06T10:10:43.810Z,129.38
2023-03-06T10:11:43.855Z,129.38
2023-03-06T10:12:43.758Z,135.00
2023-03-06T10:13:43.760Z,135.00
2023-03-06T10:14:43.745Z,123.75
2023-03-06T10:15:43.818Z,112.50
2023-03-06T10:16:43.716Z,101.25
2023-03-06T10:17:43.768Z,95.62
2023-03-06T10:18:43.692Z,95.62
2023-03-06T10:19:43.689Z,95.62
2023-03-06T10:20:43.705Z,95.62
2023-03-06T10:21:43.683Z,90.00
2023-03-06T10:22:46.083Z,90.00
2023-03-06T10:23:43.671Z,95.62
2023-03-06T10:24:43.648Z,101.25
2023-03-06T10:25:43.642Z,106.88
2023-03-06T10:26:43.722Z,101.25
2023-03-06T10:27:43.641Z,95.62
2023-03-06T10:28:43.638Z,90.00
2023-03-06T10:29:47.557Z,90.00
2023-03-06T10:30:44.778Z,90.00
2023-03-06T10:31:43.568Z,90.00
2023-03-06T10:32:48.849Z,95.62
2023-03-06T10:33:44.520Z,106.88
2023-03-06T10:34:43.536Z,129.38
2023-03-06T10:35:43.580Z,151.88
2023-03-06T10:36:44.001Z,191.25
2023-03-06T10:37:43.502Z,219.38
2023-03-06T10:38:43.515Z,230.62
2023-03-06T10:39:43.482Z,230.62
2023-03-06T10:40:43.467Z,236.25
2023-03-06T10:41:44.722Z,241.88
2023-03-06T10:42:43.449Z,253.12
2023-03-06T10:43:43.439Z,258.75
2023-03-06T10:44:43.456Z,264.38
2023-03-06T10:45:48.946Z,264.38
2023-03-06T10:46:44.559Z,270.00
2023-03-06T10:47:43.383Z,264.38
2023-03-06T10:48:43.376Z,264.38
2023-03-06T10:49:43.379Z,258.75
2023-03-06T10:50:43.335Z,247.50
2023-03-06T10:51:43.351Z,241.88
2023-03-06T10:52:43.316Z,236.25
2023-03-06T10:53:43.339Z,241.88
2023-03-06T10:54:43.352Z,241.88
2023-03-06T10:55:43.282Z,247.50
2023-03-06T10:56:43.267Z,247.50
2023-03-06T10:57:43.268Z,253.12
2023-03-06T10:58:43.288Z,258.75
2023-03-06T10:59:43.328Z,258.75
2023-03-06T11:00:43.251Z,253.12
2023-03-06T11:01:43.291Z,247.50
2023-03-06T11:02:43.199Z,241.88
2023-03-06T11:03:43.189Z,236.25
2023-03-06T11:04:43.252Z,219.38
2023-03-06T11:05:43.202Z,213.75
2023-03-06T11:06:43.182Z,202.50
2023-03-06T11:07:43.191Z,191.25
2023-03-06T11:08:43.154Z,180.00
2023-03-06T11:09:43.226Z,180.00
2023-03-06T11:10:43.421Z,191.25
2023-03-06T11:11:43.110Z,202.50
2023-03-06T11:12:43.113Z,219.38
2023-03-06T11:13:43.955Z,230.62
2023-03-06T11:14:43.079Z,219.38
2023-03-06T11:15:43.180Z,208.12
2023-03-06T11:16:43.059Z,202.50
2023-03-06T11:17:43.085Z,196.88
2023-03-06T11:18:43.055Z,191.25
2023-03-06T11:19:43.019Z,196.88
2023-03-06T11:20:51.571Z,208.12
2023-03-06T11:21:44.024Z,225.00
2023-03-06T11:22:43.957Z,230.62
2023-03-06T11:23:42.975Z,225.00
2023-03-06T11:24:42.991Z,230.62
2023-03-06T11:25:42.957Z,236.25
2023-03-06T11:26:42.986Z,236.25
2023-03-06T11:27:42.942Z,241.88
2023-03-06T11:28:42.963Z,241.88
2023-03-06T11:29:42.907Z,241.88
2023-03-06T11:30:42.911Z,236.25
2023-03-06T11:31:43.011Z,241.88
2023-03-06T11:32:42.941Z,236.25
2023-03-06T11:33:43.521Z,236.25
2023-03-06T11:34:42.884Z,236.25
2023-03-06T11:35:42.865Z,241.88
2023-03-06T11:36:42.861Z,247.50
2023-03-06T11:37:42.819Z,247.50
2023-03-06T11:38:42.852Z,241.88
2023-03-06T11:39:42.786Z,230.62
2023-03-06T11:40:42.819Z,225.00
2023-03-06T11:41:42.793Z,208.12
2023-03-06T11:42:42.792Z,202.50
2023-03-06T11:43:42.758Z,202.50
2023-03-06T11:44:42.731Z,208.12
2023-03-06T11:45:42.744Z,213.75
2023-03-06T11:46:42.780Z,219.38
2023-03-06T11:47:42.865Z,230.62
2023-03-06T11:48:42.701Z,230.62
2023-03-06T11:49:42.697Z,230.62
2023-03-06T11:50:42.717Z,225.00
2023-03-06T11:51:42.684Z,219.38
2023-03-06T11:52:42.709Z,225.00
2023-03-06T11:53:42.640Z,236.25
2023-03-06T11:54:42.656Z,247.50
2023-03-06T11:55:42.653Z,253.12
2023-03-06T11:56:42.623Z,253.12
2023-03-06T11:57:42.606Z,258.75
2023-03-06T11:58:42.670Z,264.38
2023-03-06T11:59:42.617Z,275.62
2023-03-06T12:00:42.613Z,281.25
2023-03-06T12:01:42.688Z,281.25
2023-03-06T12:02:42.561Z,275.62
2023-03-06T12:03:42.581Z,270.00
2023-03-06T12:04:42.575Z,264.38
2023-03-06T12:05:43.517Z,258.75
2023-03-06T12:06:42.508Z,253.12
2023-03-06T12:07:42.500Z,247.50
2023-03-06T12:08:42.469Z,241.88
2023-03-06T12:09:42.489Z,236.25
2023-03-06T12:10:42.482Z,230.62
2023-03-06T12:11:42.450Z,230.62
2023-03-06T12:12:43.019Z,236.25
2023-03-06T12:13:42.411Z,247.50
2023-03-06T12:14:42.436Z,253.12
2023-03-06T12:15:42.412Z,264.38
2023-03-06T12:16:42.433Z,258.75
2023-03-06T12:17:42.393Z,258.75
2023-03-06T12:18:42.430Z,247.50
2023-03-06T12:19:42.417Z,241.88
2023-03-06T12:20:42.986Z,213.75
2023-03-06T12:21:42.401Z,202.50
2023-03-06T12:22:44.316Z,191.25
2023-03-06T12:23:42.343Z,185.62
2023-03-06T12:24:42.352Z,185.62
2023-03-06T12:25:42.308Z,196.88
2023-03-06T12:26:42.299Z,202.50
2023-03-06T12:27:42.327Z,202.50
2023-03-06T12:28:42.254Z,185.62
2023-03-06T12:29:42.289Z,163.12
2023-03-06T12:30:42.248Z,140.62
2023-03-06T12:31:42.264Z,135.00
2023-03-06T12:32:42.278Z,129.38
2023-03-06T12:33:42.221Z,129.38
2023-03-06T12:34:42.225Z,135.00
2023-03-06T12:35:42.282Z,140.62
2023-03-06T12:36:42.168Z,151.88
2023-03-06T12:37:42.192Z,163.12
2023-03-06T12:38:42.181Z,168.75
2023-03-06T12:39:42.216Z,163.12
2023-03-06T12:40:42.134Z,151.88
2023-03-06T12:41:42.098Z,140.62
2023-03-06T12:42:42.136Z,140.62
2023-03-06T12:43:42.114Z,135.00
2023-03-06T12:44:42.189Z,135.00
2023-03-06T12:45:42.170Z,135.00
2023-03-06T12:46:42.139Z,123.75
2023-03-06T12:47:42.074Z,118.12
2023-03-06T12:48:42.043Z,112.50
2023-03-06T12:49:42.039Z,118.12
2023-03-06T12:50:42.042Z,123.75
2023-03-06T12:51:42.047Z,129.38
2023-03-06T12:52:42.027Z,135.00
2023-03-06T12:53:41.988Z,135.00
2023-03-06T12:54:41.969Z,135.00
2023-03-06T12:55:41.968Z,135.00
2023-03-06T12:56:41.968Z,135.00
2023-03-06T12:57:41.950Z,135.00
2023-03-06T12:58:41.966Z,135.00